Time;durP1;ratioP1;P1;durP2;ratioP2;P2;SDS_P1;SDS_P2;PMS_P1;PMS_P2;Temp;Humidity;BMP_temperature;BMP_pressure;BME280_temperature;BME280_humidity;BME280_pressure;Samples;Min_cycle;Max_cycle;Signal;HPM_P1;HPM_P2
2024/01/05 00:01:09;;;;;;;3.17;0.30;;;7.10;99.90;;;;;;5033995;28;20033;-63
2024/01/05 00:03:34;;;;;;;1.38;0.75;;;7.10;99.90;;;;;;5035246;28;20025;-63
2024/01/05 00:06:00;;;;;;;1.55;0.28;;;7.10;99.90;;;;;;5034049;28;20389;-63
2024/01/05 00:08:25;;;;;;;1.63;0.22;;;7.00;99.90;;;;;;5033616;28;20025;-63
2024/01/05 00:10:51;;;;;;;0.65;0.28;;;7.00;99.90;;;;;;5035140;28;20032;-63
2024/01/05 00:13:17;;;;;;;1.25;0.20;;;6.90;99.90;;;;;;5033784;28;20029;-63
2024/01/05 00:15:42;;;;;;;0.75;0.30;;;6.90;99.90;;;;;;5034164;28;20033;-63
2024/01/05 00:18:08;;;;;;;1.67;0.25;;;6.90;99.90;;;;;;5034968;28;20026;-63
2024/01/05 00:20:34;;;;;;;2.25;0.30;;;6.80;99.90;;;;;;5035028;28;20033;-63
2024/01/05 00:22:59;;;;;;;1.50;0.28;;;6.80;99.90;;;;;;5034691;28;20032;-63
2024/01/05 00:25:25;;;;;;;1.33;0.43;;;6.70;99.90;;;;;;5034849;28;20030;-63
2024/01/05 00:27:54;;;;;;;1.63;0.20;;;6.70;99.90;;;;;;5034699;28;20036;-63
2024/01/05 00:30:20;;;;;;;2.15;0.40;;;6.70;99.90;;;;;;5034581;28;20022;-63
2024/01/05 00:32:45;;;;;;;2.10;0.70;;;6.60;99.90;;;;;;5035042;28;20377;-63
2024/01/05 00:35:11;;;;;;;0.70;0.20;;;6.70;99.90;;;;;;5034758;28;20061;-63
2024/01/05 00:37:37;;;;;;;5.15;0.45;;;6.60;99.90;;;;;;5034288;28;20025;-63
2024/01/05 00:40:03;;;;;;;2.72;0.43;;;6.60;99.90;;;;;;5034565;28;20469;-63
2024/01/05 00:42:29;;;;;;;1.67;0.30;;;6.70;99.90;;;;;;5033194;28;20021;-64
2024/01/05 00:44:54;;;;;;;4.18;0.55;;;6.80;99.90;;;;;;5033622;28;20476;-63
2024/01/05 00:47:20;;;;;;;2.67;0.50;;;6.90;99.90;;;;;;5035954;28;20083;-64
2024/01/05 00:49:46;;;;;;;3.85;0.70;;;6.90;99.90;;;;;;5035648;28;20539;-65
2024/01/05 00:52:12;;;;;;;2.42;0.50;;;6.90;99.90;;;;;;5034683;28;20129;-63
2024/01/05 00:54:38;;;;;;;0.40;0.20;;;6.90;99.90;;;;;;5034751;28;20056;-63
2024/01/05 00:57:04;;;;;;;4.03;0.30;;;6.80;99.90;;;;;;5034528;28;20108;-63
2024/01/05 00:59:30;;;;;;;0.88;0.20;;;6.80;99.90;;;;;;5033050;28;20022;-63
2024/01/05 01:01:56;;;;;;;3.50;0.50;;;6.80;99.90;;;;;;5034026;28;20029;-63
2024/01/05 01:04:23;;;;;;;3.28;0.38;;;6.80;99.90;;;;;;5033305;28;20116;-63
2024/01/05 01:06:48;;;;;;;2.67;0.43;;;6.90;99.90;;;;;;5033704;28;20484;-63
2024/01/05 01:09:14;;;;;;;3.05;0.20;;;6.80;99.90;;;;;;5034206;28;20034;-63
2024/01/05 01:11:40;;;;;;;3.17;0.38;;;6.70;99.90;;;;;;5034200;28;20031;-63
2024/01/05 01:14:05;;;;;;;1.40;0.50;;;6.60;99.90;;;;;;5034466;28;20518;-63
2024/01/05 01:16:32;;;;;;;4.00;0.57;;;6.40;99.90;;;;;;5033904;28;20036;-63
2024/01/05 01:18:57;;;;;;;2.38;0.30;;;6.40;99.90;;;;;;5033206;28;20373;-63
2024/01/05 01:21:23;;;;;;;2.70;0.63;;;6.20;99.90;;;;;;5032977;28;20032;-63
2024/01/05 01:23:49;;;;;;;3.15;0.70;;;6.00;99.90;;;;;;5034178;28;20110;-63
2024/01/05 01:26:16;;;;;;;2.65;0.50;;;5.80;99.90;;;;;;5032794;28;20512;-63
2024/01/05 01:28:41;;;;;;;4.18;0.35;;;5.60;99.90;;;;;;5033565;28;20036;-63
2024/01/05 01:31:07;;;;;;;2.70;0.40;;;5.50;99.90;;;;;;5032552;28;20055;-63
2024/01/05 01:33:33;;;;;;;2.30;0.40;;;5.40;99.90;;;;;;5033113;28;20029;-63
2024/01/05 01:35:58;;;;;;;1.67;0.65;;;5.30;99.90;;;;;;5033499;28;20521;-63
2024/01/05 01:38:24;;;;;;;2.85;0.40;;;5.20;99.90;;;;;;5033812;28;20106;-63
2024/01/05 01:40:50;;;;;;;2.63;0.70;;;5.10;99.90;;;;;;5033752;28;20052;-63
2024/01/05 01:43:26;;;;;;;7.55;2.25;;;5.10;99.90;;;;;;5033735;28;20116;-63
2024/01/05 01:45:55;;;;;;;8.73;1.25;;;4.90;99.90;;;;;;5033629;28;20037;-63
2024/01/05 01:48:22;;;;;;;5.82;1.65;;;4.90;99.90;;;;;;5033701;28;20037;-63
2024/01/05 01:50:49;;;;;;;8.75;2.72;;;4.70;99.90;;;;;;5033527;28;20037;-63
2024/01/05 01:53:17;;;;;;;4.43;0.70;;;4.60;99.90;;;;;;5033197;28;20041;-63
2024/01/05 01:55:43;;;;;;;5.53;1.37;;;4.50;99.90;;;;;;5033308;28;20388;-63
2024/01/05 01:58:10;;;;;;;3.92;1.27;;;4.40;99.90;;;;;;5033248;28;20026;-63
2024/01/05 02:00:37;;;;;;;4.72;0.98;;;4.30;99.90;;;;;;5032483;28;20034;-63
2024/01/05 02:03:04;;;;;;;3.20;1.35;;;4.30;99.90;;;;;;5031948;28;20075;-63
2024/01/05 02:05:29;;;;;;;4.28;1.25;;;4.10;99.90;;;;;;5032218;28;20029;-63
2024/01/05 02:07:56;;;;;;;0.93;0.30;;;4.10;99.90;;;;;;5033439;28;20144;-63
2024/01/05 02:10:23;;;;;;;3.38;0.40;;;4.00;99.90;;;;;;5033679;28;20076;-63
2024/01/05 02:12:49;;;;;;;3.28;0.57;;;3.90;99.90;;;;;;5033185;28;20572;-63
2024/01/05 02:15:14;;;;;;;3.17;0.43;;;3.80;99.90;;;;;;5033104;28;20033;-63
2024/01/05 02:17:40;;;;;;;1.92;0.57;;;3.70;99.90;;;;;;5033221;28;20060;-63
2024/01/05 02:20:06;;;;;;;4.00;1.05;;;3.70;99.90;;;;;;5032092;28;20022;-63
2024/01/05 02:22:34;;;;;;;3.25;0.30;;;3.60;99.90;;;;;;5033637;28;20030;-63
2024/01/05 02:25:01;;;;;;;1.83;0.68;;;3.50;99.90;;;;;;5033810;28;20083;-63
2024/01/05 02:27:27;;;;;;;2.80;0.45;;;3.50;99.90;;;;;;5032924;28;20026;-63
2024/01/05 02:29:53;;;;;;;2.40;0.52;;;3.50;99.90;;;;;;5033446;28;20056;-63
2024/01/05 02:32:18;;;;;;;1.48;0.63;;;3.40;99.90;;;;;;5033134;28;20029;-63
2024/01/05 02:34:45;;;;;;;2.03;0.65;;;3.40;99.90;;;;;;5033302;28;20037;-63
2024/01/05 02:37:11;;;;;;;2.47;0.55;;;3.30;99.90;;;;;;5033213;28;20083;-63
2024/01/05 02:39:37;;;;;;;3.33;1.17;;;3.20;99.90;;;;;;5031951;28;20029;-63
2024/01/05 02:42:02;;;;;;;2.40;0.80;;;3.20;99.90;;;;;;5032911;28;20030;-63
2024/01/05 02:44:28;;;;;;;2.38;0.60;;;3.10;99.90;;;;;;5033586;28;20471;-63
2024/01/05 02:46:54;;;;;;;5.22;0.52;;;3.10;99.90;;;;;;5036827;28;20040;-63
2024/01/05 02:49:19;;;;;;;2.97;0.40;;;3.00;99.90;;;;;;5036982;28;20160;-63
2024/01/05 02:51:45;;;;;;;3.88;0.47;;;3.00;99.90;;;;;;5036625;28;20061;-63
2024/01/05 02:54:11;;;;;;;2.00;0.43;;;3.00;99.90;;;;;;5035200;28;20398;-63
2024/01/05 02:56:36;;;;;;;2.30;0.43;;;2.90;99.90;;;;;;5035361;28;20033;-63
2024/01/05 02:59:04;;;;;;;3.53;0.75;;;2.90;99.90;;;;;;5036493;28;20025;-63
2024/01/05 03:01:30;;;;;;;4.27;0.70;;;3.40;99.90;;;;;;5035306;28;20025;-63
2024/01/05 03:03:57;;;;;;;1.17;0.40;;;2.90;99.90;;;;;;5036488;28;20036;-63
2024/01/05 03:06:23;;;;;;;2.50;0.50;;;2.90;99.90;;;;;;5036310;28;20116;-64
2024/01/05 03:08:49;;;;;;;2.47;0.70;;;2.80;99.90;;;;;;5036472;28;20068;-63
2024/01/05 03:11:14;;;;;;;3.85;0.50;;;2.80;99.90;;;;;;5036014;28;20105;-63
2024/01/05 03:13:41;;;;;;;5.30;0.57;;;2.80;99.90;;;;;;5034988;28;20033;-62
2024/01/05 03:16:07;;;;;;;1.40;0.47;;;2.70;99.90;;;;;;5034899;28;20037;-63
2024/01/05 03:18:32;;;;;;;4.93;0.68;;;2.70;99.90;;;;;;5036413;28;20342;-63
2024/01/05 03:20:58;;;;;;;1.17;0.38;;;2.70;99.90;;;;;;5034813;28;20032;-63
2024/01/05 03:23:23;;;;;;;2.53;0.50;;;2.60;99.90;;;;;;5036108;28;20022;-63
2024/01/05 03:25:50;;;;;;;4.78;1.05;;;2.80;99.90;;;;;;5036173;28;20139;-62
2024/01/05 03:28:16;;;;;;;2.17;0.60;;;2.60;99.90;;;;;;5035982;28;20033;-63
2024/01/05 03:30:42;;;;;;;1.90;0.90;;;2.70;99.90;;;;;;5035654;28;20527;-63
2024/01/05 03:33:09;;;;;;;4.03;0.60;;;2.70;99.90;;;;;;5034746;28;20025;-63
2024/01/05 03:35:35;;;;;;;5.10;1.20;;;2.80;99.90;;;;;;5036128;28;20155;-63
2024/01/05 03:38:01;;;;;;;7.35;0.98;;;3.00;99.90;;;;;;5034613;28;20033;-63
2024/01/05 03:40:27;;;;;;;7.60;1.20;;;2.80;99.90;;;;;;5035750;28;20029;-63
2024/01/05 03:42:52;;;;;;;4.75;1.38;;;2.80;99.90;;;;;;5035416;28;20037;-63
2024/01/05 03:45:18;;;;;;;4.28;0.90;;;2.80;99.90;;;;;;5034372;28;20120;-63
2024/01/05 03:47:44;;;;;;;2.40;0.80;;;2.80;99.90;;;;;;5035242;28;20484;-63
2024/01/05 03:50:09;;;;;;;1.70;0.70;;;2.80;99.90;;;;;;5035792;28;20026;-63
2024/01/05 03:52:35;;;;;;;2.22;0.73;;;2.80;99.90;;;;;;5035076;28;20059;-63
2024/01/05 03:55:01;;;;;;;2.75;1.00;;;2.80;99.90;;;;;;5035675;28;20041;-63
2024/01/05 03:57:27;;;;;;;2.80;1.05;;;2.80;99.90;;;;;;5033404;28;20029;-63
2024/01/05 03:59:53;;;;;;;4.20;1.05;;;2.90;99.90;;;;;;5035372;28;20084;-66
2024/01/05 04:02:19;;;;;;;4.10;0.98;;;2.80;99.90;;;;;;5034175;28;20381;-64
2024/01/05 04:04:45;;;;;;;6.43;0.82;;;2.70;99.90;;;;;;5035349;28;20029;-63
2024/01/05 04:07:10;;;;;;;2.97;0.85;;;2.70;99.90;;;;;;5034794;28;20029;-64
2024/01/05 04:09:36;;;;;;;3.72;0.70;;;2.80;99.90;;;;;;5036999;28;20108;-65
2024/01/05 04:12:02;;;;;;;5.03;0.95;;;2.70;99.90;;;;;;5035151;28;20031;-65
2024/01/05 04:14:28;;;;;;;3.00;0.82;;;2.70;99.90;;;;;;5034752;28;20025;-62
2024/01/05 04:16:54;;;;;;;3.40;1.10;;;2.70;99.90;;;;;;5035509;28;20452;-63
2024/01/05 04:19:20;;;;;;;3.25;1.17;;;2.70;99.90;;;;;;5033886;28;20550;-63
2024/01/05 04:21:46;;;;;;;4.25;1.10;;;2.70;99.90;;;;;;5035264;28;20091;-63
2024/01/05 04:24:12;;;;;;;2.88;1.73;;;2.70;99.90;;;;;;5034925;28;20028;-63
2024/01/05 04:26:37;;;;;;;4.30;1.00;;;2.60;99.90;;;;;;5033914;28;20029;-63
2024/01/05 04:29:03;;;;;;;3.03;1.30;;;2.70;99.90;;;;;;5034549;28;20445;-63
2024/01/05 04:31:29;;;;;;;5.50;1.15;;;2.60;99.90;;;;;;5034502;28;20025;-63
2024/01/05 04:33:55;;;;;;;3.90;2.08;;;2.60;99.90;;;;;;5034556;28;20060;-63
2024/01/05 04:36:21;;;;;;;3.28;1.30;;;2.60;99.90;;;;;;5033399;28;20083;-64
2024/01/05 04:38:47;;;;;;;6.57;1.73;;;2.60;99.90;;;;;;5034606;28;20038;-63
2024/01/05 04:41:15;;;;;;;6.50;1.33;;;2.60;99.90;;;;;;5034638;28;20068;-63
2024/01/05 04:43:41;;;;;;;4.50;1.67;;;2.60;99.90;;;;;;5033249;28;20025;-63
2024/01/05 04:46:08;;;;;;;5.10;2.17;;;2.60;99.90;;;;;;5033120;28;20113;-63
2024/01/05 04:48:33;;;;;;;4.22;1.58;;;2.60;99.90;;;;;;5034428;28;20033;-63
2024/01/05 04:51:00;;;;;;;3.47;1.20;;;2.70;99.90;;;;;;5033176;28;20381;-63
2024/01/05 04:53:26;;;;;;;5.38;1.65;;;2.70;99.90;;;;;;5033071;28;20058;-63
2024/01/05 04:55:52;;;;;;;5.35;1.67;;;2.80;99.90;;;;;;5034064;28;20104;-63
2024/01/05 04:58:18;;;;;;;3.08;1.45;;;2.70;99.90;;;;;;5034331;28;20035;-63
2024/01/05 05:00:44;;;;;;;4.70;1.98;;;2.70;99.90;;;;;;5034258;28;20025;-63
2024/01/05 05:03:10;;;;;;;3.67;1.45;;;2.60;99.90;;;;;;5034232;28;20026;-63
2024/01/05 05:05:36;;;;;;;4.75;1.63;;;2.70;99.90;;;;;;5032963;28;20037;-63
2024/01/05 05:08:02;;;;;;;6.93;2.50;;;2.70;99.90;;;;;;5033441;28;20025;-63
2024/01/05 05:10:28;;;;;;;4.95;1.67;;;2.70;99.90;;;;;;5033918;28;20033;-63
2024/01/05 05:12:54;;;;;;;8.55;1.88;;;2.60;99.90;;;;;;5033061;28;20473;-63
2024/01/05 05:15:19;;;;;;;4.57;1.75;;;2.60;99.90;;;;;;5034364;28;20392;-63
2024/01/05 05:17:45;;;;;;;6.30;1.40;;;2.70;99.90;;;;;;5033998;28;20034;-63
2024/01/05 05:20:11;;;;;;;7.07;1.40;;;2.70;99.90;;;;;;5034051;28;20071;-63
2024/01/05 05:22:37;;;;;;;7.55;2.08;;;2.70;99.90;;;;;;5032688;28;20026;-63
2024/01/05 05:25:03;;;;;;;5.03;1.88;;;2.60;99.90;;;;;;5033701;28;20025;-63
2024/01/05 05:27:28;;;;;;;6.68;1.40;;;2.60;99.90;;;;;;5033951;28;20068;-63
2024/01/05 05:29:54;;;;;;;5.15;2.05;;;2.60;99.90;;;;;;5032611;28;20033;-62
2024/01/05 05:32:20;;;;;;;8.23;1.80;;;2.60;99.90;;;;;;5033815;28;20079;-63
2024/01/05 05:34:45;;;;;;;5.40;1.67;;;2.60;99.90;;;;;;5033569;28;20029;-63
2024/01/05 05:37:11;;;;;;;3.33;1.73;;;2.60;99.90;;;;;;5032462;28;20038;-63
2024/01/05 05:39:37;;;;;;;3.38;1.77;;;2.60;99.90;;;;;;5032453;28;20026;-62
2024/01/05 05:42:03;;;;;;;2.80;1.67;;;2.60;99.90;;;;;;5032756;28;20525;-63
2024/01/05 05:44:29;;;;;;;9.07;1.60;;;2.60;99.90;;;;;;5033449;28;20148;-62
2024/01/05 05:46:56;;;;;;;9.75;1.70;;;2.60;99.90;;;;;;5033832;28;20025;-63
2024/01/05 05:49:22;;;;;;;6.22;1.45;;;2.60;99.90;;;;;;5032417;28;20037;-63
2024/01/05 05:51:47;;;;;;;8.15;2.47;;;2.60;99.90;;;;;;5033626;28;20025;-63
2024/01/05 05:54:13;;;;;;;3.47;1.70;;;2.60;99.90;;;;;;5034076;28;20492;-63
2024/01/05 05:56:39;;;;;;;6.82;2.28;;;2.60;99.90;;;;;;5033617;28;20025;-63
2024/01/05 05:59:05;;;;;;;10.00;2.17;;;2.50;99.90;;;;;;5034132;28;20021;-63
2024/01/05 06:01:31;;;;;;;7.20;1.67;;;2.50;99.90;;;;;;5033591;28;20040;-63
2024/01/05 06:03:57;;;;;;;7.95;2.17;;;2.50;99.90;;;;;;5033752;28;20029;-63
2024/01/05 06:06:23;;;;;;;9.65;2.75;;;2.50;99.90;;;;;;5032236;28;20061;-63
2024/01/05 06:08:51;;;;;;;5.45;2.00;;;2.50;99.90;;;;;;5033568;28;20029;-63
2024/01/05 06:11:18;;;;;;;6.93;2.15;;;2.40;99.90;;;;;;5032244;28;20385;-63
2024/01/05 06:13:44;;;;;;;9.23;1.70;;;2.50;99.90;;;;;;5033416;28;20084;-63
2024/01/05 06:16:10;;;;;;;9.02;2.13;;;2.40;99.90;;;;;;5033444;28;20049;-63
2024/01/05 06:18:36;;;;;;;7.00;1.67;;;2.50;99.90;;;;;;5032513;28;20474;-63
2024/01/05 06:21:02;;;;;;;8.07;2.08;;;2.50;99.90;;;;;;5035901;28;20029;-63
2024/01/05 06:23:28;;;;;;;5.50;2.38;;;2.50;99.90;;;;;;5037435;28;20025;-63
2024/01/05 06:25:53;;;;;;;5.95;2.30;;;2.40;99.90;;;;;;5037045;28;20373;-63
2024/01/05 06:28:19;;;;;;;5.75;2.15;;;2.40;99.90;;;;;;5035821;28;20462;-63
2024/01/05 06:30:44;;;;;;;3.67;2.03;;;2.40;99.90;;;;;;5035801;28;20029;-63
2024/01/05 06:33:10;;;;;;;15.07;1.95;;;2.40;99.90;;;;;;5037092;28;20115;-64
2024/01/05 06:35:35;;;;;;;4.68;1.75;;;2.50;99.90;;;;;;5035742;28;20462;-63
2024/01/05 06:38:01;;;;;;;9.85;1.77;;;2.40;99.90;;;;;;5036917;28;20026;-63
2024/01/05 06:40:27;;;;;;;5.90;1.60;;;2.40;99.90;;;;;;5035666;28;20076;-63
2024/01/05 06:42:54;;;;;;;5.38;1.50;;;2.40;99.90;;;;;;5036550;28;20052;-63
2024/01/05 06:45:21;;;;;;;3.33;1.67;;;2.40;99.90;;;;;;5035258;28;20123;-63
2024/01/05 06:47:47;;;;;;;4.60;1.92;;;2.30;99.90;;;;;;5036576;28;20529;-63
2024/01/05 06:50:13;;;;;;;9.15;1.90;;;2.30;99.90;;;;;;5036935;28;20109;-63
2024/01/05 06:52:38;;;;;;;9.40;1.70;;;2.30;99.90;;;;;;5036486;28;20046;-63
2024/01/05 06:55:04;;;;;;;4.47;1.80;;;2.40;99.90;;;;;;5036655;28;20022;-63
2024/01/05 06:57:31;;;;;;;5.35;2.33;;;2.30;99.90;;;;;;5036537;28;20033;-63
2024/01/05 06:59:57;;;;;;;5.22;2.38;;;2.20;99.90;;;;;;5035289;28;20036;-63
2024/01/05 07:02:23;;;;;;;8.05;2.63;;;2.30;99.90;;;;;;5036577;28;20108;-63
2024/01/05 07:04:48;;;;;;;4.85;2.20;;;2.30;99.90;;;;;;5036537;28;20026;-63
2024/01/05 07:07:14;;;;;;;5.43;2.22;;;2.30;99.90;;;;;;5036350;28;20025;-63
2024/01/05 07:09:40;;;;;;;6.07;2.13;;;2.30;99.90;;;;;;5036025;28;20040;-63
2024/01/05 07:12:06;;;;;;;9.88;2.60;;;2.50;99.90;;;;;;5036591;28;20087;-63
2024/01/05 07:14:31;;;;;;;7.72;2.70;;;2.40;99.90;;;;;;5035021;28;20030;-63
2024/01/05 07:16:58;;;;;;;9.63;3.05;;;2.40;99.90;;;;;;5036290;28;20032;-64
2024/01/05 07:19:24;;;;;;;12.30;2.70;;;2.40;99.90;;;;;;5034752;28;20030;-62
2024/01/05 07:21:50;;;;;;;5.15;2.25;;;2.70;99.90;;;;;;5036295;28;20032;-63
2024/01/05 07:24:16;;;;;;;6.38;3.13;;;2.50;99.90;;;;;;5035979;28;20396;-62
2024/01/05 07:26:42;;;;;;;7.82;3.42;;;2.60;99.90;;;;;;5038155;28;20033;-64
2024/01/05 07:29:08;;;;;;;5.32;2.70;;;2.70;99.90;;;;;;5037667;28;20026;-63
2024/01/05 07:31:34;;;;;;;9.68;2.83;;;2.70;99.90;;;;;;5035841;28;20032;-63
2024/01/05 07:34:00;;;;;;;6.63;2.30;;;2.80;99.90;;;;;;5036214;28;20485;-62
2024/01/05 07:36:26;;;;;;;11.27;2.40;;;3.00;99.90;;;;;;5034491;28;20068;-62
2024/01/05 07:38:51;;;;;;;4.85;2.08;;;3.10;99.90;;;;;;5035883;28;20052;-62
2024/01/05 07:41:18;;;;;;;8.75;2.35;;;3.20;99.90;;;;;;5035405;28;20026;-62
2024/01/05 07:43:44;;;;;;;6.45;2.45;;;3.40;99.90;;;;;;5034473;28;20075;-62
2024/01/05 07:46:10;;;;;;;7.50;2.97;;;3.50;99.90;;;;;;5034305;28;20034;-63
2024/01/05 07:48:39;;;;;;;4.68;2.40;;;3.60;99.90;;;;;;5035288;28;20421;-63
2024/01/05 07:51:05;;;;;;;9.30;3.05;;;3.70;99.90;;;;;;5034340;28;20478;-62
2024/01/05 07:53:30;;;;;;;11.23;3.83;;;3.90;99.90;;;;;;5035836;28;20171;-62
2024/01/05 07:55:59;;;;;;;9.38;2.85;;;4.10;99.90;;;;;;5034871;28;20025;-62
2024/01/05 07:58:25;;;;;;;4.15;2.55;;;4.30;99.90;;;;;;5035277;28;20473;-63
2024/01/05 08:00:50;;;;;;;6.25;2.75;;;4.50;99.90;;;;;;5035704;28;20059;-63
2024/01/05 08:03:16;;;;;;;14.90;3.38;;;4.70;99.90;;;;;;5034191;28;20120;-63
2024/01/05 08:05:42;;;;;;;7.13;2.03;;;4.90;99.90;;;;;;5035452;28;20101;-62
2024/01/05 08:08:07;;;;;;;6.30;2.28;;;5.20;99.90;;;;;;5034908;28;20060;-63
2024/01/05 08:10:33;;;;;;;4.88;2.20;;;5.40;99.90;;;;;;5035398;28;20036;-62
2024/01/05 08:13:01;;;;;;;6.45;2.05;;;5.70;99.90;;;;;;5033943;28;20060;-63
2024/01/05 08:15:26;;;;;;;8.05;2.35;;;5.90;99.90;;;;;;5034311;28;20108;-63
2024/01/05 08:17:52;;;;;;;8.43;1.85;;;6.10;99.90;;;;;;5035700;28;20470;-64
2024/01/05 08:20:18;;;;;;;5.68;1.50;;;6.40;99.90;;;;;;5055162;28;20029;-63
2024/01/05 08:22:44;;;;;;;4.22;1.60;;;6.60;99.90;;;;;;5054790;28;20021;-63
2024/01/05 08:25:09;;;;;;;3.00;1.48;;;6.90;99.90;;;;;;5054852;28;20350;-63
2024/01/05 08:27:35;;;;;;;4.18;1.75;;;7.00;99.90;;;;;;5054656;28;20055;-63
2024/01/05 08:30:01;;;;;;;3.95;1.55;;;7.10;99.90;;;;;;5054702;28;20055;-62
2024/01/05 08:32:26;;;;;;;2.75;1.30;;;7.20;99.90;;;;;;5054939;28;20488;-63
2024/01/05 08:34:52;;;;;;;4.35;1.58;;;7.20;99.90;;;;;;5055358;28;20037;-63
2024/01/05 08:37:18;;;;;;;3.97;1.35;;;7.30;99.90;;;;;;5054396;28;20104;-62
2024/01/05 08:39:43;;;;;;;1.05;0.90;;;7.30;99.90;;;;;;5054525;28;20021;-63
2024/01/05 08:42:09;;;;;;;4.65;1.58;;;7.30;99.90;;;;;;5054721;28;20036;-63
2024/01/05 08:44:35;;;;;;;4.50;1.80;;;7.40;99.90;;;;;;5054216;28;20083;-63
2024/01/05 08:47:03;;;;;;;4.30;1.48;;;8.90;99.90;;;;;;5054138;28;20388;-63
2024/01/05 08:49:29;;;;;;;5.40;1.88;;;8.80;99.90;;;;;;5054384;28;20031;-63
2024/01/05 08:51:55;;;;;;;6.68;2.10;;;9.60;99.90;;;;;;5053294;28;20408;-63
2024/01/05 08:54:20;;;;;;;3.80;1.23;;;10.50;99.20;;;;;;5054285;28;20029;-64
2024/01/05 08:56:46;;;;;;;3.35;1.80;;;11.10;96.10;;;;;;5054232;28;20037;-63
2024/01/05 08:59:11;;;;;;;5.43;2.00;;;11.00;94.80;;;;;;5054039;28;20575;-63
2024/01/05 09:01:37;;;;;;;5.78;1.50;;;10.70;94.50;;;;;;5054155;28;20025;-63
2024/01/05 09:04:05;;;;;;;3.00;1.33;;;10.30;94.60;;;;;;5053571;28;20430;-63
2024/01/05 09:06:32;;;;;;;4.30;1.38;;;9.80;95.10;;;;;;5053757;28;20377;-63
2024/01/05 09:08:59;;;;;;;4.50;1.33;;;9.50;95.40;;;;;;5054100;28;20433;-63
2024/01/05 09:11:24;;;;;;;4.68;1.33;;;9.20;95.90;;;;;;5054085;28;20060;-63
2024/01/05 09:13:50;;;;;;;4.05;1.20;;;9.00;96.60;;;;;;5052700;28;20060;-63
2024/01/05 09:16:16;;;;;;;4.68;1.73;;;8.80;97.00;;;;;;5053635;28;20040;-63
2024/01/05 09:18:42;;;;;;;3.17;1.35;;;8.60;97.30;;;;;;5052644;28;20118;-63
2024/01/05 09:21:08;;;;;;;1.52;1.08;;;8.50;97.50;;;;;;5054153;28;20020;-63
2024/01/05 09:23:34;;;;;;;3.92;1.42;;;8.40;97.70;;;;;;5052314;28;20114;-63
2024/01/05 09:26:00;;;;;;;3.35;1.42;;;8.30;97.80;;;;;;5052483;28;20060;-66
2024/01/05 09:28:25;;;;;;;3.25;1.30;;;8.30;97.90;;;;;;5053809;28;20129;-63
2024/01/05 09:30:51;;;;;;;4.05;1.60;;;8.20;97.80;;;;;;5052548;28;20495;-63
2024/01/05 09:33:17;;;;;;;3.83;1.20;;;8.20;98.00;;;;;;5053456;28;20025;-63
2024/01/05 09:35:42;;;;;;;4.70;1.63;;;8.20;98.00;;;;;;5053713;28;20032;-63
2024/01/05 09:38:08;;;;;;;4.97;1.75;;;8.30;97.80;;;;;;5052465;28;20031;-63
2024/01/05 09:40:34;;;;;;;2.88;1.42;;;8.30;97.70;;;;;;5053986;28;20040;-63
2024/01/05 09:43:02;;;;;;;2.10;0.88;;;8.30;97.80;;;;;;5053900;28;20480;-63
2024/01/05 09:45:29;;;;;;;2.43;1.07;;;8.30;97.60;;;;;;5053696;28;20112;-63
2024/01/05 09:47:57;;;;;;;3.70;1.25;;;8.30;97.60;;;;;;5052286;28;20086;-63
2024/01/05 09:50:23;;;;;;;3.73;1.63;;;8.40;97.40;;;;;;5053616;28;20025;-63
2024/01/05 09:52:49;;;;;;;2.63;1.70;;;8.40;97.30;;;;;;5053398;28;20643;-63
2024/01/05 09:55:15;;;;;;;2.60;1.27;;;8.40;97.20;;;;;;5054962;28;20040;-63
2024/01/05 09:57:42;;;;;;;5.90;1.80;;;8.40;97.10;;;;;;5058146;28;20415;-63
2024/01/05 10:00:13;;;;;;;2.17;1.40;;;8.40;97.20;;;;;;5057910;28;20055;-63
2024/01/05 10:02:56;;;;;;;6.90;2.03;;;8.40;97.50;;;;;;5056713;28;20435;-63
2024/01/05 10:05:22;;;;;;;8.43;1.80;;;8.40;97.70;;;;;;5057697;28;20021;-63
2024/01/05 10:07:48;;;;;;;3.88;1.83;;;8.30;97.80;;;;;;5057462;28;20086;-63
2024/01/05 10:10:13;;;;;;;6.45;1.88;;;8.30;97.90;;;;;;5057736;28;20458;-63
2024/01/05 10:12:40;;;;;;;8.20;2.03;;;8.30;97.80;;;;;;5057575;28;20021;-63
2024/01/05 10:15:06;;;;;;;3.97;1.60;;;8.40;98.00;;;;;;5057261;28;20025;-63
2024/01/05 10:17:35;;;;;;;6.05;1.80;;;8.40;97.90;;;;;;5057226;28;20040;-62
2024/01/05 10:20:12;;;;;;;3.85;1.73;;;8.40;98.00;;;;;;5057012;28;20033;-63
2024/01/05 10:22:37;;;;;;;6.07;1.98;;;8.40;97.90;;;;;;5057101;28;20029;-63
2024/01/05 10:25:16;;;;;;;4.18;1.88;;;8.30;98.10;;;;;;5055824;28;20032;-63
2024/01/05 10:27:43;;;;;;;4.13;2.05;;;8.30;98.20;;;;;;5057088;28;20064;-63
2024/01/05 10:30:10;;;;;;;3.88;1.90;;;8.30;98.40;;;;;;5056997;28;20036;-63
2024/01/05 10:32:36;;;;;;;2.60;1.73;;;8.40;98.10;;;;;;5055708;28;20067;-63
2024/01/05 10:35:03;;;;;;;6.60;2.13;;;8.50;98.30;;;;;;5055669;28;20091;-62
2024/01/05 10:37:29;;;;;;;4.80;2.00;;;8.70;98.00;;;;;;5056909;28;20060;-63
2024/01/05 10:39:56;;;;;;;7.07;2.45;;;9.00;97.90;;;;;;5055575;28;20120;-63
2024/01/05 10:42:28;;;;;;;7.57;2.60;;;9.30;97.70;;;;;;5056837;28;20021;-63
2024/01/05 10:44:56;;;;;;;10.35;2.53;;;9.70;96.80;;;;;;5056538;28;20021;-63
2024/01/05 10:47:23;;;;;;;4.30;2.25;;;9.90;96.50;;;;;;5055044;28;20033;-63
2024/01/05 10:49:51;;;;;;;5.38;2.42;;;10.00;96.40;;;;;;5056660;28;20075;-63
2024/01/05 10:52:18;;;;;;;7.47;2.90;;;10.00;96.20;;;;;;5054894;28;20469;-63
2024/01/05 10:54:46;;;;;;;5.82;2.80;;;9.80;96.70;;;;;;5056742;28;20025;-63
2024/01/05 10:57:12;;;;;;;5.40;2.90;;;9.70;97.10;;;;;;5055285;28;20468;-63
2024/01/05 10:59:38;;;;;;;7.68;3.40;;;9.70;97.20;;;;;;5056557;28;20078;-63
2024/01/05 11:02:14;;;;;;;5.60;3.13;;;9.80;97.30;;;;;;5056553;28;20100;-63
2024/01/05 11:04:44;;;;;;;7.00;3.53;;;10.10;97.20;;;;;;5056798;28;20033;-63
2024/01/05 11:07:14;;;;;;;5.50;3.17;;;10.90;96.20;;;;;;5055121;28;20029;-63
2024/01/05 11:09:52;;;;;;;7.50;3.88;;;11.10;95.20;;;;;;5056664;28;20029;-63
2024/01/05 11:12:41;;;;;;;10.25;4.13;;;11.00;95.10;;;;;;5056054;28;20052;-63
2024/01/05 11:15:23;;;;;;;6.15;4.53;;;10.80;95.30;;;;;;5055552;28;20125;-64
2024/01/05 11:18:11;;;;;;;10.15;4.97;;;10.70;95.90;;;;;;5055628;28;20040;-64
2024/01/05 11:20:46;;;;;;;8.95;5.72;;;10.80;96.20;;;;;;5037174;28;20048;-64
2024/01/05 11:23:14;;;;;;;7.10;5.20;;;10.70;96.30;;;;;;5055441;28;20157;-63
2024/01/05 11:25:39;;;;;;;9.15;5.43;;;10.80;96.60;;;;;;5056122;28;20056;-64
2024/01/05 11:28:06;;;;;;;9.40;5.53;;;11.80;95.90;;;;;;5055650;28;20064;-63
2024/01/05 11:30:40;;;;;;;8.77;5.28;;;13.10;94.30;;;;;;5055838;28;20032;-64
2024/01/05 11:33:09;;;;;;;14.02;7.22;;;13.70;92.10;;;;;;5055774;28;20489;-63
2024/01/05 11:35:44;;;;;;;13.05;6.25;;;13.30;92.00;;;;;;5055909;28;20145;-64
2024/01/05 11:38:28;;;;;;;11.20;5.60;;;12.70;92.60;;;;;;5055596;28;20029;-63
2024/01/05 11:40:53;;;;;;;11.80;6.05;;;12.20;93.20;;;;;;5054371;28;20025;-63
2024/01/05 11:43:28;;;;;;;13.07;6.45;;;12.00;93.80;;;;;;5054713;28;20051;-64
2024/01/05 11:45:54;;;;;;;8.02;5.38;;;12.20;93.80;;;;;;5055523;28;20032;-64
2024/01/05 11:48:35;;;;;;;8.02;5.55;;;12.50;93.50;;;;;;5055445;28;20033;-63
2024/01/05 11:51:06;;;;;;;11.02;6.13;;;12.90;92.90;;;;;;5055126;28;20040;-64
2024/01/05 11:53:32;;;;;;;11.68;6.45;;;12.90;92.50;;;;;;5055502;28;20049;-64
2024/01/05 11:56:07;;;;;;;8.43;5.75;;;13.80;92.00;;;;;;5053739;28;20070;-64
2024/01/05 11:58:38;;;;;;;10.95;6.32;;;15.10;89.80;;;;;;5055315;28;20372;-64
2024/01/05 12:01:09;;;;;;;9.95;6.15;;;15.60;85.90;;;;;;5055604;28;20029;-64
2024/01/05 12:03:39;;;;;;;10.82;6.53;;;15.50;84.60;;;;;;5055550;28;20021;-64
2024/01/05 12:06:06;;;;;;;13.43;5.85;;;15.00;85.90;;;;;;5055177;28;20453;-64
2024/01/05 12:08:32;;;;;;;9.73;6.35;;;15.30;84.20;;;;;;5055410;28;20112;-64
2024/01/05 12:11:03;;;;;;;11.43;6.80;;;15.40;83.50;;;;;;5055083;28;20104;-63
2024/01/05 12:13:30;;;;;;;10.98;6.10;;;15.70;82.20;;;;;;5054877;28;20028;-64
2024/01/05 12:16:02;;;;;;;10.82;6.53;;;15.40;82.30;;;;;;5054992;28;20039;-64
2024/01/05 12:18:30;;;;;;;10.25;5.95;;;14.80;82.80;;;;;;5054476;28;20037;-64
2024/01/05 12:20:57;;;;;;;12.82;7.10;;;14.10;85.10;;;;;;5054800;28;20028;-64
2024/01/05 12:23:23;;;;;;;10.10;6.50;;;13.40;87.20;;;;;;5053411;28;20121;-64
2024/01/05 12:26:03;;;;;;;15.25;7.40;;;13.60;88.00;;;;;;5054791;28;20021;-64
2024/01/05 12:28:37;;;;;;;11.52;7.10;;;14.10;85.90;;;;;;5053422;28;20090;-64
2024/01/05 12:31:04;;;;;;;13.48;6.00;;;14.00;85.80;;;;;;5054563;28;20377;-64
2024/01/05 12:33:33;;;;;;;10.32;5.85;;;13.70;87.40;;;;;;5054798;28;20051;-64
2024/01/05 12:35:59;;;;;;;9.77;5.95;;;13.70;87.00;;;;;;5053185;28;20021;-64
2024/01/05 12:38:25;;;;;;;9.75;6.13;;;13.40;87.70;;;;;;5054654;28;20032;-64
2024/01/05 12:40:52;;;;;;;10.90;5.78;;;12.80;88.80;;;;;;5054757;28;20025;-64
2024/01/05 12:43:18;;;;;;;11.90;6.00;;;12.20;90.60;;;;;;5054448;28;20036;-64
2024/01/05 12:45:48;;;;;;;10.18;6.03;;;12.10;91.20;;;;;;5054458;28;20414;-63
2024/01/05 12:48:15;;;;;;;12.82;6.07;;;12.70;91.10;;;;;;5054218;28;20074;-64
2024/01/05 12:50:40;;;;;;;11.98;6.68;;;13.20;90.40;;;;;;5054610;28;20033;-64
2024/01/05 12:53:17;;;;;;;11.07;6.35;;;14.00;88.00;;;;;;5052736;28;20048;-64